Terminal Aerodrome Forecast
Issued by NWS Charleston, SC

Current Version | Previous Version | Text Only | Print | Product List | Glossary On
Versions: 1 2 3 4 5 6 7 8 9 10 11 12 13 14 15 16 17 18 19
175
FTUS42 KCHS 260805 AAB
TAFCHS
TAF AMD
KCHS 260805Z 2608/2706 02007KT P6SM SCT008 BKN015
     FM261400 06010KT P6SM BKN040
     FM262300 09007KT P6SM FEW015 SCT060=

USA.gov is the U.S. government's official web portal to all federal, state and local government web resources and services.